createdAt,value
2018-01-22T00:00:07.783Z,-1.30
2018-01-22T00:01:07.860Z,-1.30
2018-01-22T00:02:06.128Z,-1.30
2018-01-22T00:03:08.828Z,-1.30
2018-01-22T00:04:05.313Z,-1.30
2018-01-22T00:05:05.553Z,-1.30
2018-01-22T00:06:06.220Z,-1.30
2018-01-22T00:07:09.040Z,-1.30
2018-01-22T00:08:08.680Z,-1.30
2018-01-22T00:09:06.178Z,-1.30
2018-01-22T00:10:08.452Z,-1.30
2018-01-22T00:11:13.452Z,-1.30
2018-01-22T00:12:10.855Z,-1.30
2018-01-22T00:13:05.890Z,-1.30
2018-01-22T00:14:11.217Z,-1.30
2018-01-22T00:15:08.882Z,-1.30
2018-01-22T00:16:05.345Z,-1.30
2018-01-22T00:17:05.624Z,-1.30
2018-01-22T00:18:05.745Z,-1.40
2018-01-22T00:19:05.981Z,-1.40
2018-01-22T00:20:05.804Z,-1.40
2018-01-22T00:21:05.396Z,-1.40
2018-01-22T00:22:05.560Z,-1.40
2018-01-22T00:23:05.558Z,-1.40
2018-01-22T00:24:05.300Z,-1.40
2018-01-22T00:25:06.344Z,-1.40
2018-01-22T00:26:05.831Z,-1.40
2018-01-22T00:27:05.570Z,-1.40
2018-01-22T00:28:11.174Z,-1.40
2018-01-22T00:29:05.806Z,-1.50
2018-01-22T00:30:06.018Z,-1.40
2018-01-22T00:31:08.124Z,-1.40
2018-01-22T00:32:05.575Z,-1.40
2018-01-22T00:33:08.121Z,-1.40
2018-01-22T00:34:05.617Z,-1.40
2018-01-22T00:35:10.390Z,-1.40
2018-01-22T00:36:05.718Z,-1.40
2018-01-22T00:37:13.023Z,-1.40
2018-01-22T00:38:10.489Z,-1.40
2018-01-22T00:39:05.633Z,-1.40
2018-01-22T00:40:07.923Z,-1.40
2018-01-22T00:41:08.095Z,-1.40
2018-01-22T00:42:05.425Z,-1.40
2018-01-22T00:43:11.069Z,-1.30
2018-01-22T00:44:05.482Z,-1.40
2018-01-22T00:45:10.456Z,-1.30
2018-01-22T00:46:05.756Z,-1.30
2018-01-22T00:47:05.501Z,-1.30
2018-01-22T00:48:06.037Z,-1.30
2018-01-22T00:49:08.084Z,-1.30
2018-01-22T00:50:10.219Z,-1.20
2018-01-22T00:51:05.496Z,-1.30
2018-01-22T00:52:08.938Z,-1.20
2018-01-22T00:53:07.908Z,-1.20
2018-01-22T00:54:08.903Z,-1.20
2018-01-22T00:55:05.594Z,-1.30
2018-01-22T00:56:05.967Z,-1.20
2018-01-22T00:57:05.720Z,-1.20
2018-01-22T00:58:08.810Z,-1.20
2018-01-22T00:59:05.233Z,-1.20
2018-01-22T01:00:06.928Z,-1.20
2018-01-22T01:01:08.272Z,-1.10
2018-01-22T01:02:10.746Z,-1.10
2018-01-22T01:03:10.375Z,-1.10
2018-01-22T01:04:09.206Z,-1.10
2018-01-22T01:05:05.735Z,-1.10
2018-01-22T01:06:05.318Z,-1.10
2018-01-22T01:07:08.666Z,-1.10
2018-01-22T01:08:08.693Z,-1.10
2018-01-22T01:09:06.149Z,-1.20
2018-01-22T01:10:05.838Z,-1.10
2018-01-22T01:11:08.471Z,-1.10
2018-01-22T01:12:05.964Z,-1.10
2018-01-22T01:13:10.809Z,-1.20
2018-01-22T01:14:10.370Z,-1.10
2018-01-22T01:15:10.691Z,-1.10
2018-01-22T01:16:05.827Z,-1.10
2018-01-22T01:17:08.431Z,-1.10
2018-01-22T01:18:05.873Z,-1.10
2018-01-22T01:19:05.675Z,-1.10
2018-01-22T01:20:10.597Z,-1.10
2018-01-22T01:21:05.999Z,-1.10
2018-01-22T01:22:08.654Z,-1.10
2018-01-22T01:23:05.463Z,-1.10
2018-01-22T01:24:10.334Z,-1.10
2018-01-22T01:25:05.402Z,-1.00
2018-01-22T01:26:05.977Z,-1.10
2018-01-22T01:27:05.850Z,-1.10
2018-01-22T01:28:08.009Z,-1.00
2018-01-22T01:29:05.446Z,-1.10
2018-01-22T01:30:06.011Z,-1.00
2018-01-22T01:31:05.610Z,-1.00
2018-01-22T01:32:05.348Z,-1.00
2018-01-22T01:33:08.215Z,-1.00
2018-01-22T01:34:05.758Z,-1.00
2018-01-22T01:35:07.892Z,-1.00
2018-01-22T01:36:05.995Z,-1.00
2018-01-22T01:37:08.193Z,-1.00
2018-01-22T01:38:05.374Z,-1.00
2018-01-22T01:39:05.292Z,-1.00
2018-01-22T01:40:05.519Z,-0.90
2018-01-22T01:41:08.557Z,-0.90
2018-01-22T01:42:06.046Z,-0.90
2018-01-22T01:43:05.988Z,-0.90
2018-01-22T01:44:05.889Z,-0.80
2018-01-22T01:45:07.756Z,-0.80
2018-01-22T01:46:05.191Z,-0.80
2018-01-22T01:47:05.232Z,-0.80
2018-01-22T01:48:05.313Z,-0.70
2018-01-22T01:49:10.428Z,-0.70
2018-01-22T01:50:05.652Z,-0.70
2018-01-22T01:51:05.621Z,-0.70
2018-01-22T01:52:05.802Z,-0.70
2018-01-22T01:53:05.630Z,-0.60
2018-01-22T01:54:05.342Z,-0.60
2018-01-22T01:55:07.934Z,-0.60
2018-01-22T01:56:10.686Z,-0.60
2018-01-22T01:57:08.887Z,-0.60
2018-01-22T01:58:05.438Z,-0.50
2018-01-22T01:59:08.331Z,-0.50
2018-01-22T02:00:05.777Z,-0.50
2018-01-22T02:01:05.389Z,-0.50
2018-01-22T02:02:06.019Z,-0.40
2018-01-22T02:03:05.930Z,-0.40
2018-01-22T02:04:08.007Z,-0.40
2018-01-22T02:05:18.192Z,-0.40
2018-01-22T02:06:08.876Z,-0.40
2018-01-22T02:07:09.646Z,-0.30
2018-01-22T02:08:08.683Z,-0.30
2018-01-22T02:09:05.658Z,-0.30
2018-01-22T02:10:05.748Z,-0.30
2018-01-22T02:11:05.323Z,-0.30
2018-01-22T02:12:06.122Z,-0.30
2018-01-22T02:13:08.900Z,-0.30
2018-01-22T02:14:05.331Z,-0.30
2018-01-22T02:15:08.757Z,-0.20
2018-01-22T02:16:05.435Z,-0.30
2018-01-22T02:17:06.135Z,-0.30
2018-01-22T02:18:05.452Z,-0.20
2018-01-22T02:19:05.741Z,-0.20
2018-01-22T02:20:05.739Z,-0.20
2018-01-22T02:21:05.406Z,-0.20
2018-01-22T02:22:05.199Z,-0.20
2018-01-22T02:23:08.386Z,-0.20
2018-01-22T02:24:09.275Z,-0.20
2018-01-22T02:25:10.821Z,-0.20
2018-01-22T02:26:06.224Z,-0.20
2018-01-22T02:27:10.929Z,-0.20
2018-01-22T02:28:07.656Z,-0.20
2018-01-22T02:29:10.754Z,-0.20
2018-01-22T02:30:06.129Z,-0.20
2018-01-22T02:31:10.728Z,-0.20
2018-01-22T02:32:06.169Z,-0.20
2018-01-22T02:33:05.738Z,-0.20
2018-01-22T02:34:08.817Z,-0.20
2018-01-22T02:35:10.373Z,-0.10
2018-01-22T02:36:08.523Z,-0.20
2018-01-22T02:37:06.023Z,-0.20
2018-01-22T02:38:10.934Z,-0.20
2018-01-22T02:39:05.220Z,-0.20
2018-01-22T02:40:06.257Z,-0.20
2018-01-22T02:41:10.914Z,-0.20
2018-01-22T02:42:09.410Z,-0.20
2018-01-22T02:43:10.955Z,-0.20
2018-01-22T02:44:05.363Z,-0.20
2018-01-22T02:45:08.588Z,-0.20
2018-01-22T02:46:08.554Z,-0.20
2018-01-22T02:47:05.991Z,-0.20
2018-01-22T02:48:05.182Z,-0.20
2018-01-22T02:49:11.129Z,-0.20
2018-01-22T02:50:08.066Z,-0.20
2018-01-22T02:51:05.471Z,-0.20
2018-01-22T02:52:11.031Z,-0.20
2018-01-22T02:53:05.708Z,-0.20
2018-01-22T02:54:05.314Z,-0.20
2018-01-22T02:55:05.531Z,-0.30
2018-01-22T02:56:05.884Z,-0.20
2018-01-22T02:57:05.640Z,-0.20
2018-01-22T02:58:06.246Z,-0.20
2018-01-22T02:59:05.372Z,-0.30
2018-01-22T03:00:06.105Z,-0.30
2018-01-22T03:01:05.841Z,-0.30
2018-01-22T03:02:08.348Z,-0.30
2018-01-22T03:03:05.796Z,-0.30
2018-01-22T03:04:05.413Z,-0.30
2018-01-22T03:05:06.250Z,-0.30
2018-01-22T03:06:09.303Z,-0.30
2018-01-22T03:07:09.291Z,-0.30
2018-01-22T03:08:06.081Z,-0.30
2018-01-22T03:09:05.663Z,-0.30
2018-01-22T03:10:05.610Z,-0.30
2018-01-22T03:11:05.326Z,-0.30
2018-01-22T03:12:05.887Z,-0.30
2018-01-22T03:13:10.664Z,-0.30
2018-01-22T03:14:06.202Z,-0.30
2018-01-22T03:15:05.434Z,-0.30
2018-01-22T03:16:05.974Z,-0.30
2018-01-22T03:17:08.561Z,-0.30
2018-01-22T03:18:06.272Z,-0.30
2018-01-22T03:19:11.312Z,-0.30
2018-01-22T03:20:10.900Z,-0.30
2018-01-22T03:21:05.385Z,-0.30
2018-01-22T03:22:05.526Z,-0.30
2018-01-22T03:23:08.611Z,-0.30
2018-01-22T03:24:05.978Z,-0.30
2018-01-22T03:25:10.779Z,-0.30
2018-01-22T03:26:06.041Z,-0.30
2018-01-22T03:27:08.573Z,-0.30
2018-01-22T03:28:06.298Z,-0.30
2018-01-22T03:29:05.267Z,-0.30
2018-01-22T03:30:10.354Z,-0.30
2018-01-22T03:31:05.835Z,-0.30
2018-01-22T03:32:08.852Z,-0.30
2018-01-22T03:33:05.349Z,-0.30
2018-01-22T03:34:05.712Z,-0.30
2018-01-22T03:35:08.473Z,-0.30
2018-01-22T03:36:11.038Z,-0.30
2018-01-22T03:37:08.048Z,-0.20
2018-01-22T03:38:10.603Z,-0.30
2018-01-22T03:39:08.304Z,-0.30
2018-01-22T03:40:08.388Z,-0.30
2018-01-22T03:41:08.970Z,-0.30
2018-01-22T03:42:05.781Z,-0.30
2018-01-22T03:43:05.447Z,-0.30
2018-01-22T03:44:09.335Z,-0.30
2018-01-22T03:45:09.112Z,-0.30
2018-01-22T03:46:10.719Z,-0.20
2018-01-22T03:47:10.262Z,-0.30
2018-01-22T03:48:05.795Z,-0.30
2018-01-22T03:49:08.850Z,-0.30
2018-01-22T03:50:05.624Z,-0.20
2018-01-22T03:51:06.146Z,-0.30
2018-01-22T03:52:05.790Z,-0.20
2018-01-22T03:53:05.733Z,-0.20
2018-01-22T03:54:05.994Z,-0.30
2018-01-22T03:55:05.162Z,-0.20
2018-01-22T03:56:05.285Z,-0.20
2018-01-22T03:57:06.005Z,-0.20
2018-01-22T03:58:10.886Z,-0.20
2018-01-22T03:59:06.357Z,-0.20
2018-01-22T04:00:10.872Z,-0.20
2018-01-22T04:01:05.352Z,-0.20
2018-01-22T04:02:05.364Z,-0.20
2018-01-22T04:03:13.007Z,-0.20
2018-01-22T04:04:09.256Z,-0.20
2018-01-22T04:05:08.638Z,-0.20
2018-01-22T04:06:10.305Z,-0.20
2018-01-22T04:07:13.495Z,-0.20
2018-01-22T04:08:10.913Z,-0.20
2018-01-22T04:09:05.472Z,-0.20
2018-01-22T04:10:13.077Z,-0.20
2018-01-22T04:11:08.085Z,-0.20
2018-01-22T04:12:06.027Z,-0.20
2018-01-22T04:13:05.393Z,-0.10
2018-01-22T04:14:05.467Z,-0.20
2018-01-22T04:15:06.127Z,-0.20
2018-01-22T04:16:05.488Z,-0.20
2018-01-22T04:17:08.440Z,-0.20
2018-01-22T04:18:05.918Z,-0.20
2018-01-22T04:19:06.143Z,-0.20
2018-01-22T04:20:05.872Z,-0.20
2018-01-22T04:21:07.901Z,-0.20
2018-01-22T04:22:10.421Z,-0.10
2018-01-22T04:23:05.704Z,-0.20
2018-01-22T04:24:10.616Z,-0.10
2018-01-22T04:25:11.014Z,-0.10
2018-01-22T04:26:05.151Z,-0.10
2018-01-22T04:27:05.533Z,-0.10
2018-01-22T04:28:10.971Z,-0.20
2018-01-22T04:29:05.351Z,-0.20
2018-01-22T04:30:05.356Z,-0.10
2018-01-22T04:31:05.225Z,-0.20
2018-01-22T04:32:06.204Z,-0.20
2018-01-22T04:33:09.325Z,-0.20
2018-01-22T04:34:05.765Z,-0.20
2018-01-22T04:35:08.785Z,-0.10
2018-01-22T04:36:10.499Z,-0.20
2018-01-22T04:37:05.950Z,-0.10
2018-01-22T04:38:05.869Z,-0.20
2018-01-22T04:39:05.411Z,-0.20
2018-01-22T04:40:07.812Z,-0.20
2018-01-22T04:41:07.733Z,-0.20
2018-01-22T04:42:10.202Z,-0.20
2018-01-22T04:43:08.386Z,-0.20
2018-01-22T04:44:05.821Z,-0.20
2018-01-22T04:45:10.996Z,-0.20
2018-01-22T04:46:08.704Z,-0.20
2018-01-22T04:47:05.176Z,-0.20
2018-01-22T04:48:05.512Z,-0.20
2018-01-22T04:49:08.940Z,-0.20
2018-01-22T04:50:05.527Z,-0.20
2018-01-22T04:51:07.709Z,-0.20
2018-01-22T04:52:09.423Z,-0.10
2018-01-22T04:53:08.709Z,-0.10
2018-01-22T04:54:05.177Z,-0.20
2018-01-22T04:55:05.665Z,-0.20
2018-01-22T04:56:10.721Z,-0.20
2018-01-22T04:57:06.132Z,-0.20
2018-01-22T04:58:05.845Z,-0.20
2018-01-22T04:59:11.041Z,-0.20
2018-01-22T05:00:05.194Z,-0.20
2018-01-22T05:01:05.738Z,-0.10
2018-01-22T05:02:05.482Z,-0.20
2018-01-22T05:03:06.164Z,-0.20
2018-01-22T05:04:05.664Z,-0.20
2018-01-22T05:05:05.142Z,-0.10
2018-01-22T05:06:05.988Z,-0.20
2018-01-22T05:07:08.647Z,-0.10
2018-01-22T05:08:05.249Z,-0.20
2018-01-22T05:09:05.818Z,-0.10
2018-01-22T05:10:10.611Z,-0.20
2018-01-22T05:11:06.014Z,-0.20
2018-01-22T05:12:05.503Z,-0.20
2018-01-22T05:13:05.592Z,-0.20
2018-01-22T05:14:05.322Z,-0.10
2018-01-22T05:15:10.785Z,-0.20
2018-01-22T05:16:05.401Z,-0.10
2018-01-22T05:17:11.025Z,-0.10
2018-01-22T05:18:05.418Z,-0.10
2018-01-22T05:19:05.499Z,-0.10
2018-01-22T05:20:08.668Z,-0.10
2018-01-22T05:21:11.197Z,-0.10
2018-01-22T05:22:09.514Z,-0.10
2018-01-22T05:23:05.742Z,-0.10
2018-01-22T05:24:08.726Z,-0.10
2018-01-22T05:25:09.049Z,-0.10
2018-01-22T05:26:05.514Z,-0.10
2018-01-22T05:27:09.198Z,-0.10
2018-01-22T05:28:05.665Z,-0.10
2018-01-22T05:29:10.363Z,0.00
2018-01-22T05:30:08.008Z,-0.10
2018-01-22T05:31:05.631Z,-0.10
2018-01-22T05:32:10.758Z,-0.10
2018-01-22T05:33:06.088Z,-0.10
2018-01-22T05:34:09.075Z,-0.10
2018-01-22T05:35:10.612Z,0.00
2018-01-22T05:36:06.043Z,0.00
2018-01-22T05:37:05.643Z,-0.10
2018-01-22T05:38:08.142Z,-0.10
2018-01-22T05:39:10.662Z,0.00
2018-01-22T05:40:06.108Z,0.00
2018-01-22T05:41:05.774Z,0.00
2018-01-22T05:42:05.629Z,0.00
2018-01-22T05:43:09.431Z,0.00
2018-01-22T05:44:06.057Z,0.00
2018-01-22T05:45:05.687Z,0.00
2018-01-22T05:46:10.531Z,0.00
2018-01-22T05:47:06.242Z,0.00
2018-01-22T05:48:05.685Z,0.00
2018-01-22T05:49:05.836Z,0.00
2018-01-22T05:50:05.772Z,-0.10
2018-01-22T05:51:08.515Z,0.00
2018-01-22T05:52:05.913Z,0.00
2018-01-22T05:53:06.024Z,0.00
2018-01-22T05:54:05.223Z,0.00
2018-01-22T05:55:08.731Z,0.00
2018-01-22T05:56:05.332Z,0.00
2018-01-22T05:57:10.844Z,0.00
2018-01-22T05:58:05.824Z,0.00
2018-01-22T05:59:08.122Z,0.00
2018-01-22T06:00:05.548Z,0.00
2018-01-22T06:01:10.523Z,0.00
2018-01-22T06:02:05.765Z,0.00
2018-01-22T06:03:05.433Z,0.00
2018-01-22T06:04:08.352Z,0.00
2018-01-22T06:05:05.854Z,0.00
2018-01-22T06:06:05.436Z,0.00
2018-01-22T06:07:05.612Z,0.10
2018-01-22T06:08:10.334Z,0.00
2018-01-22T06:09:05.530Z,0.10
2018-01-22T06:10:05.899Z,0.00
2018-01-22T06:11:10.941Z,0.00
2018-01-22T06:12:09.493Z,0.10
2018-01-22T06:13:11.142Z,0.00
2018-01-22T06:14:08.812Z,0.10
2018-01-22T06:15:05.309Z,0.00
2018-01-22T06:16:08.693Z,0.00
2018-01-22T06:17:05.572Z,0.00
2018-01-22T06:18:08.837Z,0.10
2018-01-22T06:19:05.320Z,0.10
2018-01-22T06:20:08.586Z,0.10
2018-01-22T06:21:08.564Z,0.10
2018-01-22T06:22:13.495Z,0.10
2018-01-22T06:23:11.002Z,0.10
2018-01-22T06:24:08.597Z,0.10
2018-01-22T06:25:11.169Z,0.10
2018-01-22T06:26:05.520Z,0.10
2018-01-22T06:27:09.181Z,0.10
2018-01-22T06:28:05.744Z,0.10
2018-01-22T06:29:05.377Z,0.10
2018-01-22T06:30:10.420Z,0.10
2018-01-22T06:31:08.913Z,0.10
2018-01-22T06:32:05.296Z,0.10
2018-01-22T06:33:18.608Z,0.10
2018-01-22T06:34:05.385Z,0.10
2018-01-22T06:35:05.851Z,0.10
2018-01-22T06:36:05.795Z,0.10
2018-01-22T06:37:05.968Z,0.10
2018-01-22T06:38:08.127Z,0.10
2018-01-22T06:39:10.763Z,0.10
2018-01-22T06:40:11.065Z,0.10
2018-01-22T06:41:05.468Z,0.10
2018-01-22T06:42:05.245Z,0.10
2018-01-22T06:43:05.440Z,0.10
2018-01-22T06:44:05.562Z,0.00
2018-01-22T06:45:10.663Z,0.10
2018-01-22T06:46:06.277Z,0.10
2018-01-22T06:47:06.047Z,0.10
2018-01-22T06:48:05.783Z,0.10
2018-01-22T06:49:08.156Z,0.10
2018-01-22T06:50:05.563Z,0.10
2018-01-22T06:51:08.291Z,0.10
2018-01-22T06:52:05.739Z,0.10
2018-01-22T06:53:05.818Z,0.10
2018-01-22T06:54:10.575Z,0.10
2018-01-22T06:55:09.905Z,0.20
2018-01-22T06:56:05.940Z,0.20
2018-01-22T06:57:05.888Z,0.10
2018-01-22T06:58:06.002Z,0.10
2018-01-22T06:59:05.546Z,0.10
2018-01-22T07:00:05.411Z,0.10
2018-01-22T07:01:10.361Z,0.10
2018-01-22T07:02:05.927Z,0.10
2018-01-22T07:03:13.325Z,0.10
2018-01-22T07:04:05.857Z,0.20
2018-01-22T07:05:05.422Z,0.10
2018-01-22T07:06:06.076Z,0.10
2018-01-22T07:07:09.961Z,0.10
2018-01-22T07:08:08.676Z,0.20
2018-01-22T07:09:06.218Z,0.10
2018-01-22T07:10:10.474Z,0.20
2018-01-22T07:11:05.974Z,0.20
2018-01-22T07:12:06.049Z,0.20
2018-01-22T07:13:05.987Z,0.20
2018-01-22T07:14:10.725Z,0.20
2018-01-22T07:15:05.965Z,0.20
2018-01-22T07:16:06.282Z,0.20
2018-01-22T07:17:11.210Z,0.20
2018-01-22T07:18:10.230Z,0.10
2018-01-22T07:19:05.430Z,0.20
2018-01-22T07:20:06.029Z,0.20
2018-01-22T07:21:08.002Z,0.20
2018-01-22T07:22:10.588Z,0.20
2018-01-22T07:23:05.919Z,0.20
2018-01-22T07:24:10.630Z,0.20
2018-01-22T07:25:06.075Z,0.20
2018-01-22T07:26:05.093Z,0.20
2018-01-22T07:27:05.220Z,0.20
2018-01-22T07:28:08.874Z,0.20
2018-01-22T07:29:08.773Z,0.20
2018-01-22T07:30:05.466Z,0.20
2018-01-22T07:31:05.394Z,0.20
2018-01-22T07:32:10.734Z,0.20
2018-01-22T07:33:05.311Z,0.20
2018-01-22T07:34:05.470Z,0.20
2018-01-22T07:35:06.180Z,0.20
2018-01-22T07:36:05.830Z,0.20
2018-01-22T07:37:11.278Z,0.20
2018-01-22T07:38:08.413Z,0.30
2018-01-22T07:39:09.008Z,0.30
2018-01-22T07:40:08.073Z,0.30
2018-01-22T07:41:05.571Z,0.20
2018-01-22T07:42:08.855Z,0.30
2018-01-22T07:43:10.646Z,0.30
2018-01-22T07:44:06.019Z,0.30
2018-01-22T07:45:06.198Z,0.30
2018-01-22T07:46:05.770Z,0.30
2018-01-22T07:47:05.593Z,0.30
2018-01-22T07:48:09.310Z,0.30
2018-01-22T07:49:05.836Z,0.30
2018-01-22T07:50:10.680Z,0.30
2018-01-22T07:51:06.145Z,0.30
2018-01-22T07:52:07.891Z,0.40
2018-01-22T07:53:05.288Z,0.40
2018-01-22T07:54:05.471Z,0.40
2018-01-22T07:55:11.213Z,0.40
2018-01-22T07:56:05.490Z,0.40
2018-01-22T07:57:09.200Z,0.50
2018-01-22T07:58:05.652Z,0.40
2018-01-22T07:59:10.619Z,0.50
2018-01-22T08:00:05.811Z,0.50
2018-01-22T08:01:05.504Z,0.50
2018-01-22T08:02:08.658Z,0.50
2018-01-22T08:03:06.149Z,0.50
2018-01-22T08:04:06.033Z,0.50
2018-01-22T08:05:06.153Z,0.50
2018-01-22T08:06:09.239Z,0.50
2018-01-22T08:07:10.821Z,0.50
2018-01-22T08:08:06.463Z,0.50
2018-01-22T08:09:08.709Z,0.50
2018-01-22T08:10:07.748Z,0.50
2018-01-22T08:11:05.328Z,0.50
2018-01-22T08:12:05.214Z,0.50
2018-01-22T08:13:05.311Z,0.60
2018-01-22T08:14:05.432Z,0.50
2018-01-22T08:15:08.280Z,0.50
2018-01-22T08:16:08.876Z,0.50
2018-01-22T08:17:05.401Z,0.60
2018-01-22T08:18:08.254Z,0.60
2018-01-22T08:19:05.913Z,0.60
2018-01-22T08:20:06.158Z,0.60
2018-01-22T08:21:10.853Z,0.60
2018-01-22T08:22:05.539Z,0.60
2018-01-22T08:23:06.335Z,0.60
2018-01-22T08:24:06.312Z,0.60
2018-01-22T08:25:10.912Z,0.60
2018-01-22T08:26:05.453Z,0.60
2018-01-22T08:27:06.109Z,0.60
2018-01-22T08:28:09.180Z,0.60
2018-01-22T08:29:05.706Z,0.60
2018-01-22T08:30:11.008Z,0.70
2018-01-22T08:31:05.362Z,0.70
2018-01-22T08:32:05.505Z,0.70
2018-01-22T08:33:09.237Z,0.70
2018-01-22T08:34:05.831Z,0.70
2018-01-22T08:35:10.504Z,0.70
2018-01-22T08:36:05.716Z,0.70
2018-01-22T08:37:05.331Z,0.70
2018-01-22T08:38:08.730Z,0.80
2018-01-22T08:39:10.322Z,0.80
2018-01-22T08:40:08.309Z,0.80
2018-01-22T08:41:05.832Z,0.80
2018-01-22T08:42:05.724Z,0.80
2018-01-22T08:43:05.326Z,0.80
2018-01-22T08:44:05.794Z,0.80
2018-01-22T08:45:10.195Z,0.90
2018-01-22T08:46:10.557Z,0.80
2018-01-22T08:47:08.792Z,0.90
2018-01-22T08:48:05.368Z,0.90
2018-01-22T08:49:05.384Z,0.90
2018-01-22T08:50:06.219Z,0.90
2018-01-22T08:51:05.928Z,0.90
2018-01-22T08:52:10.411Z,1.00
2018-01-22T08:53:05.730Z,1.00
2018-01-22T08:54:05.604Z,1.00
2018-01-22T08:55:05.933Z,1.00
2018-01-22T08:56:08.477Z,1.00
2018-01-22T08:57:10.978Z,1.00
2018-01-22T08:58:10.551Z,1.00
2018-01-22T08:59:05.717Z,1.00
2018-01-22T09:00:10.218Z,1.00
2018-01-22T09:01:10.760Z,1.00
2018-01-22T09:02:07.967Z,1.10
2018-01-22T09:03:05.700Z,1.00
2018-01-22T09:04:05.901Z,1.10
2018-01-22T09:05:10.438Z,1.10
2018-01-22T09:06:05.737Z,1.10
2018-01-22T09:07:07.929Z,1.10
2018-01-22T09:08:05.298Z,1.10
2018-01-22T09:09:05.803Z,1.10
2018-01-22T09:10:05.224Z,1.10
2018-01-22T09:11:08.629Z,1.20
2018-01-22T09:12:11.314Z,1.20
2018-01-22T09:13:05.715Z,1.20
2018-01-22T09:14:08.500Z,1.30
2018-01-22T09:15:06.031Z,1.20
2018-01-22T09:16:06.180Z,1.30
2018-01-22T09:17:05.606Z,1.30
2018-01-22T09:18:05.547Z,1.30
2018-01-22T09:19:05.491Z,1.30
2018-01-22T09:20:05.523Z,1.30
2018-01-22T09:21:05.464Z,1.30
2018-01-22T09:22:05.779Z,1.30
2018-01-22T09:23:05.350Z,1.30
2018-01-22T09:24:06.159Z,1.30
2018-01-22T09:25:06.116Z,1.30
2018-01-22T09:26:05.688Z,1.30
2018-01-22T09:27:06.172Z,1.40
2018-01-22T09:28:05.580Z,1.40
2018-01-22T09:29:09.054Z,1.40
2018-01-22T09:30:10.518Z,1.40
2018-01-22T09:31:06.005Z,1.40
2018-01-22T09:32:08.456Z,1.40
2018-01-22T09:33:05.951Z,1.40
2018-01-22T09:34:05.947Z,1.40
2018-01-22T09:35:05.414Z,1.40
2018-01-22T09:36:05.585Z,1.40
2018-01-22T09:37:05.368Z,1.50
2018-01-22T09:38:10.992Z,1.40
2018-01-22T09:39:06.150Z,1.40
2018-01-22T09:40:05.658Z,1.50
2018-01-22T09:41:05.149Z,1.50
2018-01-22T09:42:10.235Z,1.50
2018-01-22T09:43:05.595Z,1.50
2018-01-22T09:44:05.766Z,1.50
2018-01-22T09:45:05.396Z,1.50
2018-01-22T09:46:08.992Z,1.50
2018-01-22T09:47:05.466Z,1.40
2018-01-22T09:48:08.989Z,1.40
2018-01-22T09:49:10.671Z,1.50
2018-01-22T09:50:08.531Z,1.50
2018-01-22T09:51:06.058Z,1.50
2018-01-22T09:52:06.166Z,1.50
2018-01-22T09:53:06.165Z,1.50
2018-01-22T09:54:10.639Z,1.50
2018-01-22T09:55:05.165Z,1.50
2018-01-22T09:56:06.343Z,1.50
2018-01-22T09:57:08.692Z,1.50
2018-01-22T09:58:07.932Z,1.50
2018-01-22T09:59:08.115Z,1.50
2018-01-22T10:00:05.610Z,1.50
2018-01-22T10:01:07.857Z,1.60
2018-01-22T10:02:13.122Z,1.60
2018-01-22T10:03:05.535Z,1.50
2018-01-22T10:04:06.354Z,1.50
2018-01-22T10:05:08.466Z,1.60
2018-01-22T10:06:08.811Z,1.60
2018-01-22T10:07:05.375Z,1.60
2018-01-22T10:08:05.249Z,1.60
2018-01-22T10:09:05.855Z,1.60
2018-01-22T10:10:05.948Z,1.70
2018-01-22T10:11:08.162Z,1.70
2018-01-22T10:12:05.604Z,1.70
2018-01-22T10:13:10.587Z,1.70
2018-01-22T10:14:05.956Z,1.80
2018-01-22T10:15:05.798Z,1.70
2018-01-22T10:16:05.353Z,1.80
2018-01-22T10:17:05.811Z,1.80
2018-01-22T10:18:05.569Z,1.80
2018-01-22T10:19:11.176Z,1.80
2018-01-22T10:20:05.561Z,1.80
2018-01-22T10:21:05.382Z,1.80
2018-01-22T10:22:10.661Z,1.80
2018-01-22T10:23:10.275Z,1.80
2018-01-22T10:24:05.881Z,1.80
2018-01-22T10:25:07.956Z,1.80
2018-01-22T10:26:08.323Z,1.80
2018-01-22T10:27:05.945Z,1.80
2018-01-22T10:28:05.986Z,1.80
2018-01-22T10:29:10.867Z,1.80
2018-01-22T10:30:07.643Z,1.80
2018-01-22T10:31:08.550Z,1.80
2018-01-22T10:32:09.376Z,1.80
2018-01-22T10:33:05.839Z,1.80
2018-01-22T10:34:05.595Z,1.80
2018-01-22T10:35:05.714Z,1.80
2018-01-22T10:36:10.326Z,1.80
2018-01-22T10:37:05.889Z,1.80
2018-01-22T10:38:05.954Z,1.80
2018-01-22T10:39:11.108Z,1.80
2018-01-22T10:40:05.366Z,1.80
2018-01-22T10:41:08.512Z,1.90
2018-01-22T10:42:05.471Z,1.90
2018-01-22T10:43:10.528Z,1.90
2018-01-22T10:44:08.507Z,1.90
2018-01-22T10:45:09.097Z,1.90
2018-01-22T10:46:05.831Z,1.90
2018-01-22T10:47:05.475Z,1.90
2018-01-22T10:48:05.271Z,1.90
2018-01-22T10:49:10.400Z,2.00
2018-01-22T10:50:05.891Z,2.00
2018-01-22T10:51:05.462Z,2.00
2018-01-22T10:52:05.551Z,2.10
2018-01-22T10:53:09.339Z,2.10
2018-01-22T10:54:05.869Z,2.10
2018-01-22T10:55:05.913Z,2.20
2018-01-22T10:56:05.921Z,2.10
2018-01-22T10:57:05.282Z,2.10
2018-01-22T10:58:06.197Z,2.20
2018-01-22T10:59:05.714Z,2.20
2018-01-22T11:00:05.489Z,2.20
2018-01-22T11:01:05.962Z,2.20
2018-01-22T11:02:06.038Z,2.20
2018-01-22T11:03:05.514Z,2.30
2018-01-22T11:04:05.919Z,2.30
2018-01-22T11:05:05.784Z,2.30
2018-01-22T11:06:05.839Z,2.30
2018-01-22T11:07:05.658Z,2.40
2018-01-22T11:08:11.233Z,2.40
2018-01-22T11:09:10.683Z,2.40
2018-01-22T11:10:05.880Z,2.40
2018-01-22T11:11:05.757Z,2.40
2018-01-22T11:12:08.123Z,2.40
2018-01-22T11:13:05.610Z,2.40
2018-01-22T11:14:05.356Z,2.40
2018-01-22T11:15:05.632Z,2.40
2018-01-22T11:16:11.070Z,2.40
2018-01-22T11:17:10.569Z,2.40
2018-01-22T11:18:05.691Z,2.30
2018-01-22T11:19:05.868Z,2.30
2018-01-22T11:20:05.362Z,2.30
2018-01-22T11:21:05.277Z,2.30
2018-01-22T11:22:07.836Z,2.30
2018-01-22T11:23:05.311Z,2.30
2018-01-22T11:24:10.818Z,2.30
2018-01-22T11:25:06.205Z,2.30
2018-01-22T11:26:08.697Z,2.30
2018-01-22T11:27:11.293Z,2.30
2018-01-22T11:28:05.704Z,2.20
2018-01-22T11:29:13.140Z,2.20
2018-01-22T11:30:10.579Z,2.20
2018-01-22T11:31:09.236Z,2.20
2018-01-22T11:32:13.243Z,2.30
2018-01-22T11:33:15.704Z,2.20
2018-01-22T11:34:13.706Z,2.20
2018-01-22T11:35:11.139Z,2.30
2018-01-22T11:36:07.760Z,2.30
2018-01-22T11:37:05.210Z,2.30
2018-01-22T11:38:09.346Z,2.30
2018-01-22T11:39:09.054Z,2.30
2018-01-22T11:40:05.537Z,2.30
2018-01-22T11:41:05.414Z,2.30
2018-01-22T11:42:08.499Z,2.30
2018-01-22T11:43:05.984Z,2.30
2018-01-22T11:44:06.129Z,2.30
2018-01-22T11:45:05.822Z,2.30
2018-01-22T11:46:10.782Z,2.30
2018-01-22T11:47:06.134Z,2.30
2018-01-22T11:48:05.662Z,2.30
2018-01-22T11:49:05.697Z,2.20
2018-01-22T11:50:05.203Z,2.30
2018-01-22T11:51:05.410Z,2.20
2018-01-22T11:52:06.108Z,2.20
2018-01-22T11:53:08.333Z,2.20
2018-01-22T11:54:10.803Z,2.20
2018-01-22T11:55:10.291Z,2.20
2018-01-22T11:56:10.442Z,2.20
2018-01-22T11:57:15.846Z,2.10
2018-01-22T11:58:12.898Z,2.20
2018-01-22T11:59:10.562Z,2.20
2018-01-22T12:00:10.897Z,2.20
2018-01-22T12:01:08.235Z,2.20
2018-01-22T12:02:08.310Z,2.20
2018-01-22T12:03:05.318Z,2.20
2018-01-22T12:04:05.765Z,2.30
2018-01-22T12:05:07.888Z,2.30
2018-01-22T12:06:05.627Z,2.30
2018-01-22T12:07:05.471Z,2.30
2018-01-22T12:08:05.632Z,2.30
2018-01-22T12:09:05.518Z,2.40
2018-01-22T12:10:06.009Z,2.40
2018-01-22T12:11:08.051Z,2.40
2018-01-22T12:12:08.401Z,2.50
2018-01-22T12:13:11.288Z,2.50
2018-01-22T12:14:05.851Z,2.50
2018-01-22T12:15:10.490Z,2.50
2018-01-22T12:16:05.689Z,2.50
2018-01-22T12:17:05.561Z,2.50
2018-01-22T12:18:05.514Z,2.50
2018-01-22T12:19:10.948Z,2.50
2018-01-22T12:20:05.224Z,2.60
2018-01-22T12:21:06.121Z,2.60
2018-01-22T12:22:05.436Z,2.60
2018-01-22T12:23:05.451Z,2.70
2018-01-22T12:24:05.321Z,2.70
2018-01-22T12:25:07.880Z,2.70
2018-01-22T12:26:05.701Z,2.70
2018-01-22T12:27:09.273Z,2.80
2018-01-22T12:28:08.678Z,2.80
2018-01-22T12:29:11.219Z,2.90
2018-01-22T12:30:10.709Z,2.90
2018-01-22T12:31:06.330Z,2.90
2018-01-22T12:32:05.978Z,2.90
2018-01-22T12:33:06.253Z,2.90
2018-01-22T12:34:05.854Z,2.90
2018-01-22T12:35:10.437Z,2.90
2018-01-22T12:36:09.607Z,2.90
2018-01-22T12:37:06.272Z,2.90
2018-01-22T12:38:06.010Z,2.90
2018-01-22T12:39:08.250Z,2.80
2018-01-22T12:40:08.405Z,2.80
2018-01-22T12:41:10.646Z,2.80
2018-01-22T12:42:11.103Z,2.80
2018-01-22T12:43:05.724Z,2.80
2018-01-22T12:44:05.634Z,2.80
2018-01-22T12:45:09.514Z,2.80
2018-01-22T12:46:06.033Z,2.80
2018-01-22T12:47:08.499Z,2.80
2018-01-22T12:48:08.431Z,2.70
2018-01-22T12:49:08.453Z,2.70
2018-01-22T12:50:07.973Z,2.70
2018-01-22T12:51:08.009Z,2.70
2018-01-22T12:52:08.389Z,2.70
2018-01-22T12:53:10.865Z,2.70
2018-01-22T12:54:05.322Z,2.70
2018-01-22T12:55:05.335Z,2.70
2018-01-22T12:56:05.260Z,2.70
2018-01-22T12:57:06.195Z,2.70
2018-01-22T12:58:05.495Z,2.70
2018-01-22T12:59:06.414Z,2.60
2018-01-22T13:00:10.383Z,2.60
2018-01-22T13:01:08.287Z,2.60
2018-01-22T13:02:10.916Z,2.60
2018-01-22T13:03:05.367Z,2.60
2018-01-22T13:04:05.465Z,2.60
2018-01-22T13:05:05.593Z,2.50
2018-01-22T13:06:06.202Z,2.50
2018-01-22T13:07:05.633Z,2.50